METAR Data
IDs: Format: Raw Decoded Include TAF

Data at: 1354 UTC 26 Feb 2021

EGAC 261350Z AUTO 21013KT 9999 FEW031/// 08/02 Q1034